Terminal Aerodrome Forecast
Issued by NWS

Home | Current Version | Previous Version | Graphics & Text | Print | Product List | Glossary On
Versions: 1 2 3 4 5 6 7 8 9 10 11 12 13 14 15 16 17 18 19 20 21 22 23 24 25 26 27 28 29 30 31 32 33 34 35 36 37 38 39
000
FTUS43 KLOT 172300
TAFORD
TAF
KORD 172335Z 1800/1906 04008KT P6SM BKN011
      TEMPO 1800/1802 04010KT SCT011
     FM180400 04005KT 5SM BR SCT004 OVC006
     FM180800 VRB03KT 2SM BR OVC004
     FM181400 VRB04KT 6SM BR BKN007
     FM181600 17006KT P6SM BKN020
     FM182100 09008KT P6SM SCT040 BKN200
     FM190100 19006KT P6SM BKN050 BKN100 PROB30 1904/1906 SHRA=

USA.gov is the U.S. government's official web portal to all federal, state and local government web resources and services.